sensor_id;sensor_type;location;lat;lon;timestamp;temperature;humidity
26378;DHT22;14078;50.974;6.786;2023-08-01T00:00:41;17.20;99.90
26378;DHT22;14078;50.974;6.786;2023-08-01T00:03:08;17.20;99.90
26378;DHT22;14078;50.974;6.786;2023-08-01T00:05:34;17.20;99.90
26378;DHT22;14078;50.974;6.786;2023-08-01T00:08:01;17.20;99.90
26378;DHT22;14078;50.974;6.786;2023-08-01T00:10:28;17.30;99.90
26378;DHT22;14078;50.974;6.786;2023-08-01T00:12:56;17.20;99.90
26378;DHT22;14078;50.974;6.786;2023-08-01T00:15:22;17.10;99.90
26378;DHT22;14078;50.974;6.786;2023-08-01T00:17:49;17.20;99.90
26378;DHT22;14078;50.974;6.786;2023-08-01T00:20:15;17.20;99.90
26378;DHT22;14078;50.974;6.786;2023-08-01T00:22:42;17.10;99.90
26378;DHT22;14078;50.974;6.786;2023-08-01T00:25:09;17.30;99.90
26378;DHT22;14078;50.974;6.786;2023-08-01T00:27:36;17.20;99.90
26378;DHT22;14078;50.974;6.786;2023-08-01T00:30:04;17.20;99.90
26378;DHT22;14078;50.974;6.786;2023-08-01T00:32:31;17.10;99.90
26378;DHT22;14078;50.974;6.786;2023-08-01T00:34:57;17.20;99.90
26378;DHT22;14078;50.974;6.786;2023-08-01T00:37:24;17.20;99.90
26378;DHT22;14078;50.974;6.786;2023-08-01T00:39:51;17.20;99.90
26378;DHT22;14078;50.974;6.786;2023-08-01T00:42:17;17.10;99.90
26378;DHT22;14078;50.974;6.786;2023-08-01T00:44:44;17.20;99.90
26378;DHT22;14078;50.974;6.786;2023-08-01T00:47:13;17.10;99.90
26378;DHT22;14078;50.974;6.786;2023-08-01T00:49:40;17.10;99.90
26378;DHT22;14078;50.974;6.786;2023-08-01T00:52:06;17.10;99.90
26378;DHT22;14078;50.974;6.786;2023-08-01T00:54:33;17.10;99.90
26378;DHT22;14078;50.974;6.786;2023-08-01T00:57:01;17.10;99.90
26378;DHT22;14078;50.974;6.786;2023-08-01T00:59:28;17.10;99.90
26378;DHT22;14078;50.974;6.786;2023-08-01T01:01:54;17.00;99.90
26378;DHT22;14078;50.974;6.786;2023-08-01T01:04:22;17.00;99.90
26378;DHT22;14078;50.974;6.786;2023-08-01T01:06:51;17.00;99.90
26378;DHT22;14078;50.974;6.786;2023-08-01T01:09:19;17.00;99.90
26378;DHT22;14078;50.974;6.786;2023-08-01T01:11:46;17.00;99.90
26378;DHT22;14078;50.974;6.786;2023-08-01T01:14:12;17.10;99.90
26378;DHT22;14078;50.974;6.786;2023-08-01T01:16:39;17.20;99.90
26378;DHT22;14078;50.974;6.786;2023-08-01T01:19:06;17.20;99.90
26378;DHT22;14078;50.974;6.786;2023-08-01T01:21:34;17.30;99.90
26378;DHT22;14078;50.974;6.786;2023-08-01T01:24:01;17.30;99.90
26378;DHT22;14078;50.974;6.786;2023-08-01T01:26:29;17.20;99.90
26378;DHT22;14078;50.974;6.786;2023-08-01T01:28:55;17.20;99.90
26378;DHT22;14078;50.974;6.786;2023-08-01T01:31:22;17.20;99.90
26378;DHT22;14078;50.974;6.786;2023-08-01T01:33:49;17.20;99.90
26378;DHT22;14078;50.974;6.786;2023-08-01T01:36:16;17.20;99.90
26378;DHT22;14078;50.974;6.786;2023-08-01T01:38:44;17.20;99.90
26378;DHT22;14078;50.974;6.786;2023-08-01T01:41:10;17.20;99.90
26378;DHT22;14078;50.974;6.786;2023-08-01T01:43:37;17.10;99.90
26378;DHT22;14078;50.974;6.786;2023-08-01T01:46:04;17.10;99.90
26378;DHT22;14078;50.974;6.786;2023-08-01T01:48:30;17.10;99.90
26378;DHT22;14078;50.974;6.786;2023-08-01T01:50:57;17.10;99.90
26378;DHT22;14078;50.974;6.786;2023-08-01T01:53:24;17.10;99.90
26378;DHT22;14078;50.974;6.786;2023-08-01T01:55:51;17.00;99.90
26378;DHT22;14078;50.974;6.786;2023-08-01T01:58:18;17.20;99.90
26378;DHT22;14078;50.974;6.786;2023-08-01T02:00:44;17.10;99.90
26378;DHT22;14078;50.974;6.786;2023-08-01T02:03:11;17.00;99.90
26378;DHT22;14078;50.974;6.786;2023-08-01T02:05:39;16.90;99.90
26378;DHT22;14078;50.974;6.786;2023-08-01T02:08:05;16.80;99.90
26378;DHT22;14078;50.974;6.786;2023-08-01T02:10:32;16.70;99.90
26378;DHT22;14078;50.974;6.786;2023-08-01T02:13:00;16.60;99.90
26378;DHT22;14078;50.974;6.786;2023-08-01T02:15:26;16.60;99.90
26378;DHT22;14078;50.974;6.786;2023-08-01T02:17:53;16.60;99.90
26378;DHT22;14078;50.974;6.786;2023-08-01T02:20:19;16.60;99.90
26378;DHT22;14078;50.974;6.786;2023-08-01T02:22:46;16.60;99.90
26378;DHT22;14078;50.974;6.786;2023-08-01T02:25:13;16.50;99.90
26378;DHT22;14078;50.974;6.786;2023-08-01T02:27:39;16.50;99.90
26378;DHT22;14078;50.974;6.786;2023-08-01T02:30:08;16.50;99.90
26378;DHT22;14078;50.974;6.786;2023-08-01T02:32:34;16.50;99.90
26378;DHT22;14078;50.974;6.786;2023-08-01T02:35:01;16.40;99.90
26378;DHT22;14078;50.974;6.786;2023-08-01T02:37:27;16.40;99.90
26378;DHT22;14078;50.974;6.786;2023-08-01T02:39:54;16.50;99.90
26378;DHT22;14078;50.974;6.786;2023-08-01T02:42:20;16.40;99.90
26378;DHT22;14078;50.974;6.786;2023-08-01T02:44:47;16.50;99.90
26378;DHT22;14078;50.974;6.786;2023-08-01T02:47:15;16.40;99.90
26378;DHT22;14078;50.974;6.786;2023-08-01T02:49:41;16.50;99.90
26378;DHT22;14078;50.974;6.786;2023-08-01T02:52:08;16.40;99.90
26378;DHT22;14078;50.974;6.786;2023-08-01T02:54:35;16.50;99.90
26378;DHT22;14078;50.974;6.786;2023-08-01T02:57:02;16.40;99.90
26378;DHT22;14078;50.974;6.786;2023-08-01T02:59:28;16.40;99.90
26378;DHT22;14078;50.974;6.786;2023-08-01T03:01:58;16.40;99.90
26378;DHT22;14078;50.974;6.786;2023-08-01T03:04:26;16.40;99.90
26378;DHT22;14078;50.974;6.786;2023-08-01T03:06:53;16.40;99.90
26378;DHT22;14078;50.974;6.786;2023-08-01T03:09:19;16.40;99.90
26378;DHT22;14078;50.974;6.786;2023-08-01T03:11:46;16.40;99.90
26378;DHT22;14078;50.974;6.786;2023-08-01T03:14:12;16.40;99.90
26378;DHT22;14078;50.974;6.786;2023-08-01T03:16:39;16.40;99.90
26378;DHT22;14078;50.974;6.786;2023-08-01T03:19:05;16.40;99.90
26378;DHT22;14078;50.974;6.786;2023-08-01T03:21:34;16.40;99.90
26378;DHT22;14078;50.974;6.786;2023-08-01T03:24:03;16.40;99.90
26378;DHT22;14078;50.974;6.786;2023-08-01T03:26:33;16.40;99.90
26378;DHT22;14078;50.974;6.786;2023-08-01T03:29:00;16.30;99.90
26378;DHT22;14078;50.974;6.786;2023-08-01T03:31:27;16.30;99.90
26378;DHT22;14078;50.974;6.786;2023-08-01T03:33:53;16.30;99.90
26378;DHT22;14078;50.974;6.786;2023-08-01T03:36:20;16.20;99.90
26378;DHT22;14078;50.974;6.786;2023-08-01T03:38:48;16.20;99.90
26378;DHT22;14078;50.974;6.786;2023-08-01T03:41:14;16.20;99.90
26378;DHT22;14078;50.974;6.786;2023-08-01T03:43:41;16.20;99.90
26378;DHT22;14078;50.974;6.786;2023-08-01T03:46:07;16.10;99.90
26378;DHT22;14078;50.974;6.786;2023-08-01T03:48:34;16.10;99.90
26378;DHT22;14078;50.974;6.786;2023-08-01T03:51:00;16.10;99.90
26378;DHT22;14078;50.974;6.786;2023-08-01T03:53:28;16.10;99.90
26378;DHT22;14078;50.974;6.786;2023-08-01T03:55:56;16.10;99.90
26378;DHT22;14078;50.974;6.786;2023-08-01T03:58:22;16.10;99.90
26378;DHT22;14078;50.974;6.786;2023-08-01T04:00:49;16.00;99.90
26378;DHT22;14078;50.974;6.786;2023-08-01T04:03:15;16.10;99.90
26378;DHT22;14078;50.974;6.786;2023-08-01T04:05:42;16.10;99.90
26378;DHT22;14078;50.974;6.786;2023-08-01T04:08:08;16.00;99.90
26378;DHT22;14078;50.974;6.786;2023-08-01T04:10:35;16.00;99.90
26378;DHT22;14078;50.974;6.786;2023-08-01T04:13:03;16.00;99.90
26378;DHT22;14078;50.974;6.786;2023-08-01T04:15:29;15.90;99.90
26378;DHT22;14078;50.974;6.786;2023-08-01T04:17:56;15.90;99.90
26378;DHT22;14078;50.974;6.786;2023-08-01T04:20:22;15.90;99.90
26378;DHT22;14078;50.974;6.786;2023-08-01T04:22:49;15.90;99.90
26378;DHT22;14078;50.974;6.786;2023-08-01T04:25:16;15.90;99.90
26378;DHT22;14078;50.974;6.786;2023-08-01T04:27:42;15.80;99.90
26378;DHT22;14078;50.974;6.786;2023-08-01T04:30:11;15.90;99.90
26378;DHT22;14078;50.974;6.786;2023-08-01T04:32:37;15.90;99.90
26378;DHT22;14078;50.974;6.786;2023-08-01T04:35:04;15.90;99.90
26378;DHT22;14078;50.974;6.786;2023-08-01T04:37:31;15.90;99.90
26378;DHT22;14078;50.974;6.786;2023-08-01T04:39:57;15.90;99.90
26378;DHT22;14078;50.974;6.786;2023-08-01T04:42:24;15.90;99.90
26378;DHT22;14078;50.974;6.786;2023-08-01T04:44:50;15.90;99.90
26378;DHT22;14078;50.974;6.786;2023-08-01T04:47:18;15.90;99.90
26378;DHT22;14078;50.974;6.786;2023-08-01T04:49:45;15.80;99.90
26378;DHT22;14078;50.974;6.786;2023-08-01T04:52:11;15.80;99.90
26378;DHT22;14078;50.974;6.786;2023-08-01T04:54:38;15.80;99.90
26378;DHT22;14078;50.974;6.786;2023-08-01T04:57:04;15.80;99.90
26378;DHT22;14078;50.974;6.786;2023-08-01T04:59:31;15.70;99.90
26378;DHT22;14078;50.974;6.786;2023-08-01T05:01:58;15.70;99.90
26378;DHT22;14078;50.974;6.786;2023-08-01T05:04:26;15.80;99.90
26378;DHT22;14078;50.974;6.786;2023-08-01T05:06:52;15.80;99.90
26378;DHT22;14078;50.974;6.786;2023-08-01T05:09:19;15.90;99.90
26378;DHT22;14078;50.974;6.786;2023-08-01T05:11:45;15.90;99.90
26378;DHT22;14078;50.974;6.786;2023-08-01T05:14:12;15.90;99.90
26378;DHT22;14078;50.974;6.786;2023-08-01T05:16:38;15.90;99.90
26378;DHT22;14078;50.974;6.786;2023-08-01T05:19:05;15.80;99.90
26378;DHT22;14078;50.974;6.786;2023-08-01T05:21:33;15.80;99.90
26378;DHT22;14078;50.974;6.786;2023-08-01T05:23:59;15.80;99.90
26378;DHT22;14078;50.974;6.786;2023-08-01T05:26:26;15.80;99.90
26378;DHT22;14078;50.974;6.786;2023-08-01T05:28:52;15.80;99.90
26378;DHT22;14078;50.974;6.786;2023-08-01T05:31:19;15.80;99.90
26378;DHT22;14078;50.974;6.786;2023-08-01T05:33:45;15.80;99.90
26378;DHT22;14078;50.974;6.786;2023-08-01T05:36:12;15.80;99.90
26378;DHT22;14078;50.974;6.786;2023-08-01T05:38:39;15.80;99.90
26378;DHT22;14078;50.974;6.786;2023-08-01T05:41:06;15.80;99.90
26378;DHT22;14078;50.974;6.786;2023-08-01T05:43:33;15.80;99.90
26378;DHT22;14078;50.974;6.786;2023-08-01T05:45:59;15.90;99.90
26378;DHT22;14078;50.974;6.786;2023-08-01T05:48:26;16.00;99.90
26378;DHT22;14078;50.974;6.786;2023-08-01T05:50:52;16.10;99.90
26378;DHT22;14078;50.974;6.786;2023-08-01T05:53:20;16.10;99.90
26378;DHT22;14078;50.974;6.786;2023-08-01T05:55:48;16.20;99.90
26378;DHT22;14078;50.974;6.786;2023-08-01T05:58:15;16.20;99.90
26378;DHT22;14078;50.974;6.786;2023-08-01T06:00:41;16.30;99.90
26378;DHT22;14078;50.974;6.786;2023-08-01T06:03:08;16.40;99.90
26378;DHT22;14078;50.974;6.786;2023-08-01T06:05:35;16.40;99.90
26378;DHT22;14078;50.974;6.786;2023-08-01T06:08:03;16.40;99.90
26378;DHT22;14078;50.974;6.786;2023-08-01T06:10:29;16.50;99.90
26378;DHT22;14078;50.974;6.786;2023-08-01T06:12:57;16.50;99.90
26378;DHT22;14078;50.974;6.786;2023-08-01T06:15:24;16.50;99.90
26378;DHT22;14078;50.974;6.786;2023-08-01T06:17:50;16.40;99.90
26378;DHT22;14078;50.974;6.786;2023-08-01T06:20:17;16.50;99.90
26378;DHT22;14078;50.974;6.786;2023-08-01T06:22:43;16.40;99.90
26378;DHT22;14078;50.974;6.786;2023-08-01T06:25:10;16.50;99.90
26378;DHT22;14078;50.974;6.786;2023-08-01T06:27:36;16.50;99.90
26378;DHT22;14078;50.974;6.786;2023-08-01T06:30:05;16.60;99.90
26378;DHT22;14078;50.974;6.786;2023-08-01T06:32:32;16.70;99.90
26378;DHT22;14078;50.974;6.786;2023-08-01T06:34:58;16.70;99.90
26378;DHT22;14078;50.974;6.786;2023-08-01T06:37:25;16.80;99.90
26378;DHT22;14078;50.974;6.786;2023-08-01T06:39:51;16.90;99.90
26378;DHT22;14078;50.974;6.786;2023-08-01T06:42:18;16.90;99.90
26378;DHT22;14078;50.974;6.786;2023-08-01T06:44:45;17.00;99.90
26378;DHT22;14078;50.974;6.786;2023-08-01T06:47:13;17.00;99.90
26378;DHT22;14078;50.974;6.786;2023-08-01T06:49:40;17.10;99.90
26378;DHT22;14078;50.974;6.786;2023-08-01T06:52:06;17.20;99.90
26378;DHT22;14078;50.974;6.786;2023-08-01T06:54:33;17.20;99.90
26378;DHT22;14078;50.974;6.786;2023-08-01T06:57:00;17.10;99.90
26378;DHT22;14078;50.974;6.786;2023-08-01T06:59:26;17.10;99.90
26378;DHT22;14078;50.974;6.786;2023-08-01T07:01:53;17.10;99.90
26378;DHT22;14078;50.974;6.786;2023-08-01T07:04:21;17.10;99.90
26378;DHT22;14078;50.974;6.786;2023-08-01T07:06:49;17.10;99.90
26378;DHT22;14078;50.974;6.786;2023-08-01T07:09:15;17.00;99.90
26378;DHT22;14078;50.974;6.786;2023-08-01T07:11:42;17.00;99.90
26378;DHT22;14078;50.974;6.786;2023-08-01T07:14:08;17.00;99.90
26378;DHT22;14078;50.974;6.786;2023-08-01T07:16:35;17.00;99.90
26378;DHT22;14078;50.974;6.786;2023-08-01T07:19:01;17.10;99.90
26378;DHT22;14078;50.974;6.786;2023-08-01T07:21:29;17.10;99.90
26378;DHT22;14078;50.974;6.786;2023-08-01T07:23:56;17.10;99.90
26378;DHT22;14078;50.974;6.786;2023-08-01T07:26:23;17.10;99.90
26378;DHT22;14078;50.974;6.786;2023-08-01T07:28:50;17.10;99.90
26378;DHT22;14078;50.974;6.786;2023-08-01T07:31:16;17.20;99.90
26378;DHT22;14078;50.974;6.786;2023-08-01T07:33:43;17.30;99.90
26378;DHT22;14078;50.974;6.786;2023-08-01T07:36:09;17.40;99.90
26378;DHT22;14078;50.974;6.786;2023-08-01T07:38:37;17.50;99.90
26378;DHT22;14078;50.974;6.786;2023-08-01T07:41:04;17.50;99.90
26378;DHT22;14078;50.974;6.786;2023-08-01T07:43:32;17.80;99.90
26378;DHT22;14078;50.974;6.786;2023-08-01T07:45:59;17.90;99.90
26378;DHT22;14078;50.974;6.786;2023-08-01T07:48:25;18.10;99.90
26378;DHT22;14078;50.974;6.786;2023-08-01T07:50:52;18.00;99.90
26378;DHT22;14078;50.974;6.786;2023-08-01T07:53:19;18.10;99.90
26378;DHT22;14078;50.974;6.786;2023-08-01T07:55:46;18.30;99.90
26378;DHT22;14078;50.974;6.786;2023-08-01T07:58:13;18.30;99.90
26378;DHT22;14078;50.974;6.786;2023-08-01T08:00:39;18.30;99.90
26378;DHT22;14078;50.974;6.786;2023-08-01T08:03:06;18.20;99.90
26378;DHT22;14078;50.974;6.786;2023-08-01T08:05:33;18.10;99.90
26378;DHT22;14078;50.974;6.786;2023-08-01T08:08:02;18.30;99.90
26378;DHT22;14078;50.974;6.786;2023-08-01T08:10:28;18.20;99.90
26378;DHT22;14078;50.974;6.786;2023-08-01T08:12:56;18.30;99.90
26378;DHT22;14078;50.974;6.786;2023-08-01T08:15:23;18.40;99.90
26378;DHT22;14078;50.974;6.786;2023-08-01T08:17:50;18.40;99.90
26378;DHT22;14078;50.974;6.786;2023-08-01T08:20:16;18.60;99.90
26378;DHT22;14078;50.974;6.786;2023-08-01T08:22:43;18.60;99.90
26378;DHT22;14078;50.974;6.786;2023-08-01T08:25:09;18.80;99.90
26378;DHT22;14078;50.974;6.786;2023-08-01T08:27:36;18.90;99.90
26378;DHT22;14078;50.974;6.786;2023-08-01T08:30:05;18.90;99.90
26378;DHT22;14078;50.974;6.786;2023-08-01T08:32:31;18.70;99.90
26378;DHT22;14078;50.974;6.786;2023-08-01T08:34:58;18.90;99.90
26378;DHT22;14078;50.974;6.786;2023-08-01T08:37:24;18.90;99.90
26378;DHT22;14078;50.974;6.786;2023-08-01T08:39:51;19.00;99.90
26378;DHT22;14078;50.974;6.786;2023-08-01T08:42:18;19.10;99.90
26378;DHT22;14078;50.974;6.786;2023-08-01T08:44:44;19.30;99.90
26378;DHT22;14078;50.974;6.786;2023-08-01T08:47:15;19.10;99.90
26378;DHT22;14078;50.974;6.786;2023-08-01T08:49:43;18.90;99.90
26378;DHT22;14078;50.974;6.786;2023-08-01T08:52:09;18.90;99.90
26378;DHT22;14078;50.974;6.786;2023-08-01T08:54:37;18.90;99.90
26378;DHT22;14078;50.974;6.786;2023-08-01T08:57:05;19.40;99.90
26378;DHT22;14078;50.974;6.786;2023-08-01T08:59:31;19.00;99.90
26378;DHT22;14078;50.974;6.786;2023-08-01T09:01:58;19.10;99.90
26378;DHT22;14078;50.974;6.786;2023-08-01T09:04:27;19.40;99.90
26378;DHT22;14078;50.974;6.786;2023-08-01T09:06:55;20.00;99.90
26378;DHT22;14078;50.974;6.786;2023-08-01T09:09:23;19.80;99.90
26378;DHT22;14078;50.974;6.786;2023-08-01T09:11:52;19.80;99.90
26378;DHT22;14078;50.974;6.786;2023-08-01T09:14:21;19.60;99.90
26378;DHT22;14078;50.974;6.786;2023-08-01T09:16:47;19.80;99.90
26378;DHT22;14078;50.974;6.786;2023-08-01T09:19:16;19.80;99.90
26378;DHT22;14078;50.974;6.786;2023-08-01T09:21:43;20.00;99.90
26378;DHT22;14078;50.974;6.786;2023-08-01T09:24:10;19.70;99.90
26378;DHT22;14078;50.974;6.786;2023-08-01T09:26:37;19.40;99.90
26378;DHT22;14078;50.974;6.786;2023-08-01T09:29:04;19.50;99.90
26378;DHT22;14078;50.974;6.786;2023-08-01T09:31:32;19.40;99.90
26378;DHT22;14078;50.974;6.786;2023-08-01T09:34:00;19.90;99.90
26378;DHT22;14078;50.974;6.786;2023-08-01T09:36:27;19.70;99.90
26378;DHT22;14078;50.974;6.786;2023-08-01T09:38:59;19.20;99.90
26378;DHT22;14078;50.974;6.786;2023-08-01T09:41:25;19.50;99.90
26378;DHT22;14078;50.974;6.786;2023-08-01T09:43:52;19.70;99.90
26378;DHT22;14078;50.974;6.786;2023-08-01T09:46:19;20.10;99.90
26378;DHT22;14078;50.974;6.786;2023-08-01T09:48:45;20.10;94.20
26378;DHT22;14078;50.974;6.786;2023-08-01T09:51:12;20.10;90.20
26378;DHT22;14078;50.974;6.786;2023-08-01T09:53:46;20.50;82.80
26378;DHT22;14078;50.974;6.786;2023-08-01T09:58:44;19.90;99.90
26378;DHT22;14078;50.974;6.786;2023-08-01T10:01:11;19.80;99.90
26378;DHT22;14078;50.974;6.786;2023-08-01T10:03:39;19.60;99.90
26378;DHT22;14078;50.974;6.786;2023-08-01T10:06:06;19.60;99.90
26378;DHT22;14078;50.974;6.786;2023-08-01T10:08:33;19.70;99.90
26378;DHT22;14078;50.974;6.786;2023-08-01T10:11:02;19.60;99.90
26378;DHT22;14078;50.974;6.786;2023-08-01T10:13:29;19.80;99.90
26378;DHT22;14078;50.974;6.786;2023-08-01T10:15:58;20.00;99.60
26378;DHT22;14078;50.974;6.786;2023-08-01T10:18:25;20.00;99.80
26378;DHT22;14078;50.974;6.786;2023-08-01T10:20:53;19.90;99.90
26378;DHT22;14078;50.974;6.786;2023-08-01T10:23:19;19.90;99.90
26378;DHT22;14078;50.974;6.786;2023-08-01T10:25:46;20.00;99.90
26378;DHT22;14078;50.974;6.786;2023-08-01T10:28:13;20.00;99.90
26378;DHT22;14078;50.974;6.786;2023-08-01T10:30:39;20.10;97.90
26378;DHT22;14078;50.974;6.786;2023-08-01T10:33:07;20.20;93.70
26378;DHT22;14078;50.974;6.786;2023-08-01T10:35:38;20.30;54.20
26378;DHT22;14078;50.974;6.786;2023-08-01T10:38:06;20.40;57.80
26378;DHT22;14078;50.974;6.786;2023-08-01T10:40:33;20.70;80.40
26378;DHT22;14078;50.974;6.786;2023-08-01T10:42:59;20.80;43.40
26378;DHT22;14078;50.974;6.786;2023-08-01T10:45:26;20.90;15.80
26378;DHT22;14078;50.974;6.786;2023-08-01T10:48:05;20.80;17.20
26378;DHT22;14078;50.974;6.786;2023-08-01T10:50:33;20.80;39.90
26378;DHT22;14078;50.974;6.786;2023-08-01T10:53:03;20.80;1.00
26378;DHT22;14078;50.974;6.786;2023-08-01T10:55:40;20.70;99.90
26378;DHT22;14078;50.974;6.786;2023-08-01T10:58:07;20.80;99.90
26378;DHT22;14078;50.974;6.786;2023-08-01T11:00:34;21.20;99.90
26378;DHT22;14078;50.974;6.786;2023-08-01T11:03:00;21.10;99.90
26378;DHT22;14078;50.974;6.786;2023-08-01T11:05:27;21.20;1.00
26378;DHT22;14078;50.974;6.786;2023-08-01T11:07:56;21.20;99.90
26378;DHT22;14078;50.974;6.786;2023-08-01T11:10:24;21.20;1.00
26378;DHT22;14078;50.974;6.786;2023-08-01T11:12:50;21.30;99.90
26378;DHT22;14078;50.974;6.786;2023-08-01T11:15:18;21.30;99.90
26378;DHT22;14078;50.974;6.786;2023-08-01T11:17:46;21.20;1.00
26378;DHT22;14078;50.974;6.786;2023-08-01T11:20:13;21.20;99.90
26378;DHT22;14078;50.974;6.786;2023-08-01T11:22:48;21.30;99.90
26378;DHT22;14078;50.974;6.786;2023-08-01T11:25:17;21.30;59.30
26378;DHT22;14078;50.974;6.786;2023-08-01T11:27:43;21.40;9.00
26378;DHT22;14078;50.974;6.786;2023-08-01T11:30:10;21.60;99.90
26378;DHT22;14078;50.974;6.786;2023-08-01T11:32:37;21.80;1.00
26378;DHT22;14078;50.974;6.786;2023-08-01T11:52:25;22.20;1.00
26378;DHT22;14078;50.974;6.786;2023-08-01T11:54:52;22.00;39.20
26378;DHT22;14078;50.974;6.786;2023-08-01T11:57:19;22.10;18.40
26378;DHT22;14078;50.974;6.786;2023-08-01T11:59:47;22.10;1.00
26378;DHT22;14078;50.974;6.786;2023-08-01T12:02:20;22.00;1.00
26378;DHT22;14078;50.974;6.786;2023-08-01T12:04:47;21.80;94.60
26378;DHT22;14078;50.974;6.786;2023-08-01T12:07:14;21.80;1.00
26378;DHT22;14078;50.974;6.786;2023-08-01T12:09:42;21.90;85.70
26378;DHT22;14078;50.974;6.786;2023-08-01T12:12:09;22.00;99.90
26378;DHT22;14078;50.974;6.786;2023-08-01T12:14:41;22.20;1.00
26378;DHT22;14078;50.974;6.786;2023-08-01T12:17:07;22.10;1.00
26378;DHT22;14078;50.974;6.786;2023-08-01T12:19:34;22.30;83.80
26378;DHT22;14078;50.974;6.786;2023-08-01T12:22:00;22.20;1.00
26378;DHT22;14078;50.974;6.786;2023-08-01T12:24:27;22.00;1.00
26378;DHT22;14078;50.974;6.786;2023-08-01T12:26:55;21.90;99.90
26378;DHT22;14078;50.974;6.786;2023-08-01T12:29:21;21.70;99.90
26378;DHT22;14078;50.974;6.786;2023-08-01T12:31:48;20.60;99.90
26378;DHT22;14078;50.974;6.786;2023-08-01T12:34:14;19.20;99.90
26378;DHT22;14078;50.974;6.786;2023-08-01T12:36:41;18.40;99.90
26378;DHT22;14078;50.974;6.786;2023-08-01T12:39:07;18.20;99.90
26378;DHT22;14078;50.974;6.786;2023-08-01T12:41:36;18.30;99.90
26378;DHT22;14078;50.974;6.786;2023-08-01T12:44:04;18.50;99.90
26378;DHT22;14078;50.974;6.786;2023-08-01T12:46:31;18.50;99.90
26378;DHT22;14078;50.974;6.786;2023-08-01T12:48:57;18.50;99.90
26378;DHT22;14078;50.974;6.786;2023-08-01T12:51:24;18.60;99.90
26378;DHT22;14078;50.974;6.786;2023-08-01T12:53:50;18.80;99.90
26378;DHT22;14078;50.974;6.786;2023-08-01T13:38:11;20.50;99.90
26378;DHT22;14078;50.974;6.786;2023-08-01T13:40:38;20.30;99.90
26378;DHT22;14078;50.974;6.786;2023-08-01T13:43:04;20.50;99.90
26378;DHT22;14078;50.974;6.786;2023-08-01T14:00:20;20.90;99.90
26378;DHT22;14078;50.974;6.786;2023-08-01T14:02:48;21.10;99.90
26378;DHT22;14078;50.974;6.786;2023-08-01T14:05:15;21.00;46.80
26378;DHT22;14078;50.974;6.786;2023-08-01T14:07:41;20.90;31.30
26378;DHT22;14078;50.974;6.786;2023-08-01T14:10:08;20.90;24.70
26378;DHT22;14078;50.974;6.786;2023-08-01T14:12:35;20.80;1.00
26378;DHT22;14078;50.974;6.786;2023-08-01T14:15:01;20.70;1.00
26378;DHT22;14078;50.974;6.786;2023-08-01T14:17:29;20.60;99.90
26378;DHT22;14078;50.974;6.786;2023-08-01T14:19:56;20.30;1.00
26378;DHT22;14078;50.974;6.786;2023-08-01T14:22:22;20.10;1.00
26378;DHT22;14078;50.974;6.786;2023-08-01T14:24:49;19.80;1.00
26378;DHT22;14078;50.974;6.786;2023-08-01T14:27:15;19.70;1.00
26378;DHT22;14078;50.974;6.786;2023-08-01T14:29:42;19.80;1.00
26378;DHT22;14078;50.974;6.786;2023-08-01T14:32:08;19.90;1.00
26378;DHT22;14078;50.974;6.786;2023-08-01T14:37:05;20.40;99.90
26378;DHT22;14078;50.974;6.786;2023-08-01T14:39:32;20.50;1.00
26378;DHT22;14078;50.974;6.786;2023-08-01T14:41:58;20.40;99.90
26378;DHT22;14078;50.974;6.786;2023-08-01T15:09:11;21.80;99.90
26378;DHT22;14078;50.974;6.786;2023-08-01T15:11:37;22.60;1.00
26378;DHT22;14078;50.974;6.786;2023-08-01T15:14:04;22.80;1.00
26378;DHT22;14078;50.974;6.786;2023-08-01T15:16:30;22.50;99.90
26378;DHT22;14078;50.974;6.786;2023-08-01T15:18:57;22.30;1.00
26378;DHT22;14078;50.974;6.786;2023-08-01T15:21:23;21.90;1.00
26378;DHT22;14078;50.974;6.786;2023-08-01T15:23:52;21.40;1.00
26378;DHT22;14078;50.974;6.786;2023-08-01T15:26:20;21.10;26.60
26378;DHT22;14078;50.974;6.786;2023-08-01T15:28:46;21.00;89.80
26378;DHT22;14078;50.974;6.786;2023-08-01T15:31:13;21.00;52.30
26378;DHT22;14078;50.974;6.786;2023-08-01T15:33:40;21.50;99.90
26378;DHT22;14078;50.974;6.786;2023-08-01T15:36:07;21.60;31.80
26378;DHT22;14078;50.974;6.786;2023-08-01T15:38:34;21.30;99.90
26378;DHT22;14078;50.974;6.786;2023-08-01T15:41:01;21.10;99.90
26378;DHT22;14078;50.974;6.786;2023-08-01T15:43:33;20.70;81.30
26378;DHT22;14078;50.974;6.786;2023-08-01T15:46:00;20.50;1.00
26378;DHT22;14078;50.974;6.786;2023-08-01T15:48:26;20.40;99.90
26378;DHT22;14078;50.974;6.786;2023-08-01T15:50:53;20.30;1.00
26378;DHT22;14078;50.974;6.786;2023-08-01T15:53:19;20.20;1.00
26378;DHT22;14078;50.974;6.786;2023-08-01T15:55:46;20.20;99.90
26378;DHT22;14078;50.974;6.786;2023-08-01T15:58:19;20.10;99.90
26378;DHT22;14078;50.974;6.786;2023-08-01T16:00:47;20.00;20.00
26378;DHT22;14078;50.974;6.786;2023-08-01T16:03:13;20.10;99.90
26378;DHT22;14078;50.974;6.786;2023-08-01T16:05:40;20.10;1.00
26378;DHT22;14078;50.974;6.786;2023-08-01T16:08:06;20.10;1.00
26378;DHT22;14078;50.974;6.786;2023-08-01T16:10:33;20.20;1.00
26378;DHT22;14078;50.974;6.786;2023-08-01T16:12:59;20.50;1.00
26378;DHT22;14078;50.974;6.786;2023-08-01T16:15:26;21.00;1.00
26378;DHT22;14078;50.974;6.786;2023-08-01T16:17:54;21.80;99.90
26378;DHT22;14078;50.974;6.786;2023-08-01T16:20:20;22.70;99.90
26378;DHT22;14078;50.974;6.786;2023-08-01T16:22:47;23.20;99.90
26378;DHT22;14078;50.974;6.786;2023-08-01T16:25:13;23.00;99.90
26378;DHT22;14078;50.974;6.786;2023-08-01T16:27:40;22.60;99.90
26378;DHT22;14078;50.974;6.786;2023-08-01T16:30:07;22.30;99.90
26378;DHT22;14078;50.974;6.786;2023-08-01T16:32:34;22.00;99.90
26378;DHT22;14078;50.974;6.786;2023-08-01T16:35:02;21.80;99.90
26378;DHT22;14078;50.974;6.786;2023-08-01T16:37:29;21.50;99.90
26378;DHT22;14078;50.974;6.786;2023-08-01T16:39:55;21.20;99.90
26378;DHT22;14078;50.974;6.786;2023-08-01T16:42:22;21.00;99.90
26378;DHT22;14078;50.974;6.786;2023-08-01T16:44:48;20.90;99.90
26378;DHT22;14078;50.974;6.786;2023-08-01T16:47:16;20.80;1.00
26378;DHT22;14078;50.974;6.786;2023-08-01T16:49:44;20.70;1.00
26378;DHT22;14078;50.974;6.786;2023-08-01T16:52:12;20.60;1.00
26378;DHT22;14078;50.974;6.786;2023-08-01T16:54:39;20.60;99.90
26378;DHT22;14078;50.974;6.786;2023-08-01T16:57:06;20.50;99.90
26378;DHT22;14078;50.974;6.786;2023-08-01T16:59:32;20.50;99.90
26378;DHT22;14078;50.974;6.786;2023-08-01T17:01:59;20.50;99.90
26378;DHT22;14078;50.974;6.786;2023-08-01T17:04:25;20.50;99.90
26378;DHT22;14078;50.974;6.786;2023-08-01T17:06:52;20.40;99.90
26378;DHT22;14078;50.974;6.786;2023-08-01T17:09:20;20.50;99.90
26378;DHT22;14078;50.974;6.786;2023-08-01T17:11:47;20.40;99.90
26378;DHT22;14078;50.974;6.786;2023-08-01T17:14:13;20.40;18.10